Time;durP1;ratioP1;P1;durP2;ratioP2;P2;SDS_P1;SDS_P2;PMS_P1;PMS_P2;Temp;Humidity;BMP_temperature;BMP_pressure;BME280_temperature;BME280_humidity;BME280_pressure;Samples;Min_cycle;Max_cycle;Signal;HPM_P1;HPM_P2
2023/08/04 00:01:35;;;;;;;1.83;1.35;;;;;;;24.66;49.14;100888.81;5058109;28;20049;-71
2023/08/04 00:04:00;;;;;;;1.80;1.65;;;;;;;24.70;48.89;100879.38;5061216;28;20093;-70
2023/08/04 00:06:26;;;;;;;1.92;1.30;;;;;;;24.69;49.26;100883.06;5057951;28;20491;-70
2023/08/04 00:08:51;;;;;;;1.38;1.27;;;;;;;24.69;49.06;100883.06;5058927;28;20044;-70
2023/08/04 00:11:17;;;;;;;1.25;1.15;;;;;;;24.68;49.09;100878.75;5052356;28;20041;-70
2023/08/04 00:13:42;;;;;;;1.67;1.40;;;;;;;24.70;49.39;100878.56;5054637;28;20413;-70
2023/08/04 00:16:09;;;;;;;1.65;1.25;;;;;;;24.66;49.12;100872.03;5060376;28;20040;-69
2023/08/04 00:18:36;;;;;;;1.20;1.05;;;;;;;24.63;49.17;100862.63;5056830;28;20036;-69
2023/08/04 00:21:03;;;;;;;1.25;1.20;;;;;;;24.70;49.06;100876.72;5052826;28;20474;-70
2023/08/04 00:23:29;;;;;;;1.83;1.52;;;;;;;24.70;49.14;100876.72;5049474;28;20471;-71
2023/08/04 00:25:54;;;;;;;2.08;1.40;;;;;;;24.68;49.13;100885.94;5053995;28;20059;-70
2023/08/04 00:28:22;;;;;;;0.90;0.85;;;;;;;24.67;49.22;100893.09;5050188;28;20079;-70
2023/08/04 00:30:48;;;;;;;1.05;1.02;;;;;;;24.68;49.04;100892.06;5050904;28;20517;-70
2023/08/04 00:33:13;;;;;;;1.67;1.50;;;;;;;24.68;49.04;100891.25;5046110;28;20037;-70
2023/08/04 00:35:39;;;;;;;2.28;1.52;;;;;;;24.63;49.18;100894.56;5048724;28;20564;-70
2023/08/04 00:38:04;;;;;;;2.17;1.38;;;;;;;24.68;49.26;100896.59;5053329;28;20075;-70
2023/08/04 00:40:30;;;;;;;1.25;1.15;;;;;;;24.65;49.15;100902.34;5049101;28;20063;-70
2023/08/04 00:42:56;;;;;;;1.58;1.48;;;;;;;24.69;49.06;100899.03;5082358;27;20620;-70
2023/08/04 00:45:24;;;;;;;1.40;1.30;;;;;;;24.64;49.18;100898.84;5050389;28;20521;-70
2023/08/04 00:47:54;;;;;;;1.67;1.30;;;;;;;24.68;48.96;100902.72;5063739;28;20029;-70
2023/08/04 00:50:20;;;;;;;1.83;1.35;;;;;;;24.67;49.35;100900.28;5048768;28;20090;-70
2023/08/04 00:52:46;;;;;;;1.80;1.33;;;;;;;24.67;49.20;100902.94;5049390;28;20041;-71
2023/08/04 00:55:13;;;;;;;1.33;1.23;;;;;;;24.65;49.23;100903.16;5048774;28;20052;-71
2023/08/04 00:57:39;;;;;;;1.83;1.40;;;;;;;24.66;49.24;100903.97;5049055;28;20083;-71
2023/08/04 01:00:06;;;;;;;1.50;1.40;;;;;;;24.57;49.34;100890.06;5054479;28;20090;-70
2023/08/04 01:02:32;;;;;;;1.02;1.02;;;;;;;24.65;49.11;100905.81;5045723;28;20132;-70
2023/08/04 01:04:59;;;;;;;1.27;1.17;;;;;;;24.65;49.33;100897.84;5045669;28;20135;-70
2023/08/04 01:07:28;;;;;;;1.38;1.27;;;;;;;24.64;49.25;100900.72;5053180;28;20040;-69
2023/08/04 01:10:06;;;;;;;1.73;1.42;;;;;;;24.63;49.14;100907.06;5067301;28;20097;-70
2023/08/04 01:12:51;;;;;;;1.67;1.48;;;;;;;24.65;48.99;100910.31;5053291;28;20058;-71
2023/08/04 01:15:18;;;;;;;1.80;1.40;;;;;;;24.65;49.20;100905.00;5056921;28;20086;-71
2023/08/04 01:17:44;;;;;;;1.55;1.20;;;;;;;24.67;48.95;100913.59;5054540;28;20044;-70
2023/08/04 01:20:09;;;;;;;1.48;1.33;;;;;;;24.40;49.14;100876.38;5049794;28;20044;-69
2023/08/04 01:22:35;;;;;;;1.35;1.25;;;;;;;24.63;49.25;100904.41;5050783;28;21582;-71
2023/08/04 01:25:01;;;;;;;1.20;1.10;;;;;;;24.62;49.15;100910.75;5048041;28;20047;-70
2023/08/04 01:27:42;;;;;;;1.30;1.20;;;;;;;24.66;49.02;100910.13;5046725;28;21416;-70
2023/08/04 01:30:16;;;;;;;1.30;1.20;;;;;;;24.61;49.16;100907.28;5052021;28;20063;-70
2023/08/04 01:32:42;;;;;;;1.48;1.38;;;;;;;24.61;49.14;100912.59;5057577;28;20122;-70
2023/08/04 01:35:08;;;;;;;1.50;1.40;;;;;;;24.52;49.27;100902.38;5052085;28;20032;-70
2023/08/04 01:37:33;;;;;;;1.48;1.27;;;;;;;24.60;49.09;100918.94;5052739;28;20807;-70
2023/08/04 01:39:59;;;;;;;1.23;1.20;;;;;;;24.63;49.30;100923.84;5080027;28;20039;-70
2023/08/04 01:42:25;;;;;;;1.42;1.05;;;;;;;24.66;48.92;100926.09;5043751;28;20123;-70
2023/08/04 01:44:50;;;;;;;1.90;1.55;;;;;;;24.64;49.00;100925.50;5046981;28;20049;-69
2023/08/04 01:47:16;;;;;;;1.23;1.20;;;;;;;24.59;48.97;100917.28;5052988;28;20041;-70
2023/08/04 01:49:41;;;;;;;1.40;1.30;;;;;;;24.54;49.11;100900.31;5082941;27;20119;-70
2023/08/04 01:52:07;;;;;;;1.25;1.15;;;;;;;24.63;49.07;100925.69;5088640;28;20542;-69
2023/08/04 01:54:32;;;;;;;2.78;1.58;;;;;;;24.65;48.91;100924.47;5055332;28;20498;-70
2023/08/04 01:56:58;;;;;;;1.50;1.30;;;;;;;24.63;49.17;100923.84;5052322;28;20041;-70
2023/08/04 01:59:23;;;;;;;1.20;1.00;;;;;;;24.59;49.11;100914.63;5053085;28;20024;-70
2023/08/04 02:01:49;;;;;;;1.20;1.13;;;;;;;24.61;49.16;100922.44;5085125;28;20043;-70
2023/08/04 02:04:14;;;;;;;1.23;1.10;;;;;;;24.59;49.32;100919.94;5056221;28;20041;-70
2023/08/04 02:06:40;;;;;;;0.93;0.93;;;;;;;24.57;49.34;100926.50;5033407;28;20045;-70
2023/08/04 02:09:06;;;;;;;1.33;1.08;;;;;;;24.61;49.02;100925.09;5048640;28;20029;-70
2023/08/04 02:11:31;;;;;;;1.27;1.17;;;;;;;24.60;49.23;100929.59;5052824;28;20042;-70
2023/08/04 02:14:00;;;;;;;1.20;1.00;;;;;;;24.56;49.27;100925.69;5049501;28;20695;-70
2023/08/04 02:16:26;;;;;;;1.35;1.25;;;;;;;24.57;49.02;100921.19;5051557;28;20048;-70
2023/08/04 02:19:03;;;;;;;1.60;1.27;;;;;;;24.59;49.23;100927.13;5051285;28;20506;-70
2023/08/04 02:21:29;;;;;;;0.95;0.90;;;;;;;24.58;49.01;100936.94;5049298;28;20059;-71
2023/08/04 02:23:54;;;;;;;1.27;1.20;;;;;;;24.59;49.02;100949.22;5055328;28;20052;-70
2023/08/04 02:26:20;;;;;;;1.20;1.20;;;;;;;24.58;49.17;100939.63;5046264;28;20098;-71
2023/08/04 02:28:45;;;;;;;1.58;1.20;;;;;;;24.59;48.75;100941.25;5050627;28;20079;-70
2023/08/04 02:31:11;;;;;;;1.17;1.08;;;;;;;24.58;49.14;100944.94;5048067;28;20053;-70
2023/08/04 02:33:36;;;;;;;1.08;1.08;;;;;;;24.57;49.33;100940.63;5053328;28;20055;-70
2023/08/04 02:36:02;;;;;;;1.45;1.25;;;;;;;24.58;49.24;100946.78;5049084;28;20056;-70
2023/08/04 02:38:28;;;;;;;1.58;1.17;;;;;;;24.60;49.21;100942.91;5048419;28;20052;-71
2023/08/04 02:41:02;;;;;;;1.30;1.20;;;;;;;24.59;49.15;100946.56;5045083;28;20048;-70
2023/08/04 02:43:28;;;;;;;1.58;1.15;;;;;;;24.57;48.98;100953.94;5052571;28;20036;-71
2023/08/04 02:45:53;;;;;;;1.52;1.25;;;;;;;24.59;49.16;100951.91;5051469;28;20982;-70
2023/08/04 02:48:19;;;;;;;1.02;0.93;;;;;;;24.52;49.25;100947.63;5046267;28;20052;-70
2023/08/04 02:50:45;;;;;;;0.90;0.90;;;;;;;24.59;49.07;100951.06;5052764;28;20060;-71
2023/08/04 02:53:10;;;;;;;1.50;1.05;;;;;;;24.60;49.15;100952.75;5050432;28;20043;-70
2023/08/04 02:55:36;;;;;;;1.30;1.20;;;;;;;24.58;49.00;100954.78;5076521;28;20044;-71
2023/08/04 02:58:01;;;;;;;1.52;1.23;;;;;;;24.48;48.94;100943.75;5053424;28;20047;-70
2023/08/04 03:00:27;;;;;;;1.35;1.00;;;;;;;24.55;49.22;100950.69;5047420;28;20669;-70
2023/08/04 03:02:52;;;;;;;1.10;1.00;;;;;;;24.57;49.16;100953.94;5050196;28;20044;-70
2023/08/04 03:05:17;;;;;;;1.58;1.17;;;;;;;24.46;48.98;100951.94;5063490;28;20063;-71
2023/08/04 03:07:43;;;;;;;1.20;1.10;;;;;;;24.52;49.15;100960.94;5051592;28;20071;-70
2023/08/04 03:10:09;;;;;;;1.02;1.02;;;;;;;24.48;49.15;100955.22;5047948;28;20049;-70
2023/08/04 03:12:34;;;;;;;1.00;0.98;;;;;;;24.56;49.08;100959.50;5054962;28;20040;-71
2023/08/04 03:15:00;;;;;;;1.05;1.02;;;;;;;24.57;48.90;100961.94;5051609;28;20513;-71
2023/08/04 03:17:25;;;;;;;1.05;1.05;;;;;;;24.55;49.02;100956.00;5049368;28;20127;-72
2023/08/04 03:19:51;;;;;;;1.40;1.27;;;;;;;24.53;49.13;100958.06;5056884;28;20048;-71
2023/08/04 03:22:17;;;;;;;1.42;1.20;;;;;;;24.51;49.34;100965.44;5053704;28;20130;-70
2023/08/04 03:24:42;;;;;;;0.90;0.90;;;;;;;24.54;49.07;100972.19;5054925;28;20043;-71
2023/08/04 03:27:08;;;;;;;0.88;0.88;;;;;;;24.48;49.17;100957.06;5051989;28;20052;-71
2023/08/04 03:29:33;;;;;;;1.30;1.20;;;;;;;24.52;49.21;100972.41;5055435;28;20041;-71
2023/08/04 03:31:59;;;;;;;1.00;0.90;;;;;;;24.52;49.05;100977.72;5054067;28;20032;-71
2023/08/04 03:34:24;;;;;;;1.13;1.05;;;;;;;24.47;48.94;100966.88;5052878;28;20039;-70
2023/08/04 03:36:50;;;;;;;1.13;1.02;;;;;;;24.52;49.07;100980.38;5053640;28;20061;-72
2023/08/04 03:39:15;;;;;;;0.77;0.68;;;;;;;24.51;49.42;100984.06;5052496;28;20040;-70
2023/08/04 03:41:41;;;;;;;1.10;1.00;;;;;;;24.52;49.06;100987.56;5056724;28;20032;-72
2023/08/04 03:44:06;;;;;;;1.10;1.10;;;;;;;24.49;49.13;100988.78;5054222;28;20099;-70
2023/08/04 03:46:32;;;;;;;0.93;0.90;;;;;;;24.48;49.02;100986.34;5047211;28;20552;-70
2023/08/04 03:48:57;;;;;;;1.02;0.93;;;;;;;24.50;48.95;100995.75;5054839;28;20060;-70
2023/08/04 03:51:23;;;;;;;1.08;0.85;;;;;;;24.49;49.11;100996.78;5063148;28;20044;-70
2023/08/04 03:53:48;;;;;;;1.08;1.08;;;;;;;24.50;49.12;100998.41;5055920;28;20048;-70
2023/08/04 03:56:14;;;;;;;1.35;0.95;;;;;;;24.50;48.95;100998.41;5061427;28;20039;-71
2023/08/04 03:58:40;;;;;;;1.10;1.00;;;;;;;24.52;49.23;101004.34;5055076;28;20135;-71
2023/08/04 04:01:05;;;;;;;0.90;0.80;;;;;;;24.53;49.03;101011.31;5055962;28;20086;-70
2023/08/04 04:03:31;;;;;;;1.20;1.10;;;;;;;24.53;48.96;101005.97;5056736;28;20111;-70
2023/08/04 04:05:56;;;;;;;1.23;1.13;;;;;;;24.52;49.21;101017.66;5061736;28;20061;-70
2023/08/04 04:08:22;;;;;;;1.35;1.00;;;;;;;24.48;49.24;101008.44;5060180;28;20695;-70
2023/08/04 04:10:48;;;;;;;1.08;1.08;;;;;;;24.49;49.20;101007.44;5063647;28;20032;-70
2023/08/04 04:13:13;;;;;;;0.93;0.93;;;;;;;24.51;49.31;101020.53;5059324;28;20044;-70
2023/08/04 04:15:39;;;;;;;1.13;1.02;;;;;;;24.26;49.09;100978.56;5057974;28;20036;-69
2023/08/04 04:18:04;;;;;;;1.20;1.10;;;;;;;24.46;49.11;101015.81;5052076;28;20040;-70
2023/08/04 04:20:30;;;;;;;1.33;1.10;;;;;;;24.49;49.23;101022.59;5045875;28;20453;-70
2023/08/04 04:22:55;;;;;;;0.93;0.93;;;;;;;24.49;49.03;101025.25;5050739;28;20051;-70
2023/08/04 04:25:21;;;;;;;0.98;0.88;;;;;;;24.47;49.19;101035.28;5054094;28;20035;-70
2023/08/04 04:27:46;;;;;;;1.17;0.90;;;;;;;24.49;49.22;101028.72;5049926;28;20048;-70
2023/08/04 04:30:12;;;;;;;1.20;1.02;;;;;;;24.50;48.95;101035.69;5047887;28;20036;-71
2023/08/04 04:32:37;;;;;;;1.23;0.90;;;;;;;24.49;49.18;101038.56;5053347;28;20510;-71
2023/08/04 04:35:03;;;;;;;0.80;0.80;;;;;;;24.47;49.05;101035.28;5049846;28;20052;-71
2023/08/04 04:37:29;;;;;;;0.93;0.85;;;;;;;24.47;49.27;101053.91;5054428;28;20076;-70
2023/08/04 04:39:54;;;;;;;0.85;0.85;;;;;;;24.47;49.11;101051.25;5049249;28;20036;-71
2023/08/04 04:42:20;;;;;;;1.02;1.00;;;;;;;24.50;49.08;101056.16;5057329;28;20043;-72
2023/08/04 04:44:45;;;;;;;0.90;0.90;;;;;;;24.48;49.17;101053.72;5053154;28;20085;-71
2023/08/04 04:47:11;;;;;;;1.00;1.00;;;;;;;24.49;49.21;101066.00;5048895;28;20478;-72
2023/08/04 04:49:37;;;;;;;0.98;0.80;;;;;;;24.46;49.05;101066.41;5060526;28;20033;-72
2023/08/04 04:52:04;;;;;;;1.30;1.05;;;;;;;24.49;49.30;101070.50;5047124;28;20483;-70
2023/08/04 04:54:30;;;;;;;1.08;1.00;;;;;;;24.45;49.16;101080.75;5051526;28;20041;-70
2023/08/04 04:56:55;;;;;;;1.00;1.00;;;;;;;24.46;49.02;101076.25;5050270;28;20628;-70
2023/08/04 04:59:21;;;;;;;0.95;0.95;;;;;;;24.46;49.18;101066.41;5054431;28;20047;-70
2023/08/04 05:01:46;;;;;;;1.85;1.08;;;;;;;24.38;49.04;101056.75;5049078;28;20040;-70
2023/08/04 05:04:12;;;;;;;0.70;0.70;;;;;;;24.41;49.16;101059.00;5058484;28;20040;-70
2023/08/04 05:06:37;;;;;;;1.27;1.08;;;;;;;24.43;48.86;101068.66;5052439;28;20747;-69
2023/08/04 05:09:03;;;;;;;0.80;0.80;;;;;;;24.43;48.95;101066.81;5052864;28;20237;-73
2023/08/04 05:11:28;;;;;;;1.13;1.02;;;;;;;24.47;49.39;101072.56;5049594;28;20044;-72
2023/08/04 05:13:54;;;;;;;0.75;0.75;;;;;;;24.39;49.09;101060.25;5052626;28;20055;-73
2023/08/04 05:16:20;;;;;;;0.88;0.88;;;;;;;24.42;49.08;101070.50;5052444;28;20465;-73
2023/08/04 05:18:45;;;;;;;1.00;0.70;;;;;;;24.48;49.19;101076.84;5048236;28;21995;-72
2023/08/04 05:21:11;;;;;;;1.00;1.00;;;;;;;24.49;48.96;101073.97;5052271;28;20041;-73
2023/08/04 05:23:36;;;;;;;1.35;0.90;;;;;;;24.47;49.39;101081.34;5049793;28;20044;-72
2023/08/04 05:26:02;;;;;;;0.73;0.73;;;;;;;24.47;49.17;101080.53;5048640;28;20044;-72
2023/08/04 05:28:30;;;;;;;0.82;0.82;;;;;;;24.47;49.22;101085.84;5048180;28;20076;-72
2023/08/04 05:31:01;;;;;;;0.95;0.95;;;;;;;24.47;49.09;101091.19;5052657;28;20044;-72
2023/08/04 05:33:29;;;;;;;1.05;0.90;;;;;;;24.36;49.27;101073.97;5047923;28;20040;-72
2023/08/04 05:35:54;;;;;;;1.00;1.00;;;;;;;24.46;49.38;101100.19;5053233;28;20064;-72
2023/08/04 05:38:20;;;;;;;1.63;1.00;;;;;;;24.38;49.09;101090.53;5048857;28;20581;-72
2023/08/04 05:40:47;;;;;;;0.98;0.98;;;;;;;24.48;49.11;101106.13;5051574;28;20109;-72
2023/08/04 05:43:13;;;;;;;0.88;0.88;;;;;;;24.42;49.06;101102.44;5044388;28;20145;-73
2023/08/04 05:45:41;;;;;;;0.93;0.93;;;;;;;24.46;49.08;101102.84;5044353;28;20166;-72
2023/08/04 05:48:07;;;;;;;1.17;1.08;;;;;;;24.10;49.28;101050.78;5052548;28;20070;-71
2023/08/04 05:50:33;;;;;;;0.90;0.80;;;;;;;24.49;49.07;101113.09;5049044;28;20060;-71
2023/08/04 05:52:59;;;;;;;0.65;0.65;;;;;;;24.48;49.19;101122.09;5052262;28;20048;-71
2023/08/04 05:55:25;;;;;;;0.90;0.57;;;;;;;24.49;49.21;101113.91;5054332;28;20032;-70
2023/08/04 05:57:51;;;;;;;0.98;0.90;;;;;;;24.31;50.26;101103.84;5050942;28;20093;-70
2023/08/04 06:00:17;;;;;;;1.05;0.90;;;;;;;24.23;50.56;101103.19;5044178;28;20063;-70
2023/08/04 06:02:44;;;;;;;0.88;0.85;;;;;;;24.25;50.86;101122.47;5048025;28;20045;-69
2023/08/04 06:05:13;;;;;;;2.55;1.33;;;;;;;24.19;50.77;101126.72;5045278;28;20174;-69
2023/08/04 06:07:42;;;;;;;2.90;1.30;;;;;;;24.15;50.66;101120.16;5050760;28;20036;-71
2023/08/04 06:10:08;;;;;;;1.55;1.05;;;;;;;24.03;50.58;101108.47;5046462;28;20044;-69
2023/08/04 06:12:34;;;;;;;1.23;1.13;;;;;;;24.19;50.50;101128.56;5044496;28;20123;-71
2023/08/04 06:15:01;;;;;;;1.23;1.08;;;;;;;24.22;50.29;101128.16;5050194;28;21008;-72
2023/08/04 06:17:26;;;;;;;1.10;1.00;;;;;;;24.27;50.50;101136.38;5055778;28;20020;-71
2023/08/04 06:19:52;;;;;;;1.42;1.20;;;;;;;24.29;50.48;101140.50;5050162;28;20052;-72
2023/08/04 06:22:17;;;;;;;1.23;1.10;;;;;;;24.26;50.43;101140.06;5043399;28;20398;-71
2023/08/04 06:24:43;;;;;;;1.13;0.82;;;;;;;24.28;50.45;101140.69;5047670;28;20041;-72
2023/08/04 06:27:08;;;;;;;1.35;1.10;;;;;;;24.28;50.18;101143.34;5046000;28;20048;-72
2023/08/04 06:29:34;;;;;;;1.20;0.77;;;;;;;24.19;50.63;101147.19;5053897;28;20115;-71
2023/08/04 06:32:00;;;;;;;1.75;1.20;;;;;;;24.18;50.53;101146.38;5047509;28;20040;-72
2023/08/04 06:34:26;;;;;;;0.85;0.85;;;;;;;24.16;50.65;101150.25;5046303;28;21969;-71
2023/08/04 06:36:51;;;;;;;1.20;1.10;;;;;;;24.09;50.83;101155.56;5084944;28;20282;-72
2023/08/04 06:39:17;;;;;;;1.45;1.00;;;;;;;24.03;51.00;101157.16;5049638;28;20044;-71
2023/08/04 06:41:43;;;;;;;0.75;0.73;;;;;;;24.06;50.83;101158.63;5071123;28;20708;-73
2023/08/04 06:44:10;;;;;;;1.05;1.02;;;;;;;24.04;50.91;101155.31;5055815;28;20036;-73
2023/08/04 06:46:35;;;;;;;1.52;1.10;;;;;;;24.04;50.94;101160.66;5056023;28;20410;-73
2023/08/04 06:49:01;;;;;;;1.45;0.90;;;;;;;24.03;51.06;101162.50;5051067;28;20048;-73
2023/08/04 06:51:26;;;;;;;1.63;0.85;;;;;;;24.04;50.92;101155.31;5055637;28;20037;-73
2023/08/04 06:53:52;;;;;;;1.10;0.80;;;;;;;23.97;50.85;101149.19;5050363;28;20047;-73
2023/08/04 06:56:20;;;;;;;2.15;1.17;;;;;;;24.03;50.80;101167.81;5051256;28;20063;-74
2023/08/04 06:58:46;;;;;;;1.30;1.00;;;;;;;24.01;50.71;101163.72;5055265;28;20043;-71
2023/08/04 07:01:11;;;;;;;1.05;0.93;;;;;;;24.07;50.83;101168.25;5054944;28;20036;-70
2023/08/04 07:03:37;;;;;;;1.15;1.08;;;;;;;24.02;50.85;101173.31;5067521;28;20774;-70
2023/08/04 07:06:02;;;;;;;0.70;0.70;;;;;;;24.08;50.68;101172.56;5059847;28;20040;-70
2023/08/04 07:08:28;;;;;;;1.20;1.10;;;;;;;24.10;50.84;101175.84;5061984;28;20040;-70
2023/08/04 07:10:53;;;;;;;2.28;1.30;;;;;;;24.06;50.78;101182.56;5051568;28;20045;-71
2023/08/04 07:13:19;;;;;;;1.33;0.70;;;;;;;24.05;50.77;101181.72;5054381;28;20048;-71
2023/08/04 07:15:55;;;;;;;1.75;1.15;;;;;;;24.03;50.94;101177.63;5053493;28;20045;-69
2023/08/04 07:18:21;;;;;;;2.40;1.13;;;;;;;24.02;50.78;101183.97;5055770;28;20039;-73
2023/08/04 07:20:46;;;;;;;1.83;0.90;;;;;;;24.02;50.95;101183.97;5049468;28;20024;-73
2023/08/04 07:23:12;;;;;;;0.77;0.77;;;;;;;23.99;51.18;101192.34;5049570;28;20036;-74
2023/08/04 07:25:37;;;;;;;1.15;0.80;;;;;;;23.93;51.18;101190.50;5049779;28;20155;-72
2023/08/04 07:28:03;;;;;;;1.58;1.10;;;;;;;23.98;51.00;101194.19;5045937;28;20311;-73
2023/08/04 07:30:29;;;;;;;1.45;1.10;;;;;;;23.97;51.01;101189.91;5049719;28;20101;-72
2023/08/04 07:32:55;;;;;;;1.25;0.90;;;;;;;23.88;50.99;101187.59;5059670;28;20502;-74
2023/08/04 07:35:20;;;;;;;1.48;1.30;;;;;;;23.97;50.99;101205.03;5048419;28;20046;-73
2023/08/04 07:37:46;;;;;;;1.27;1.17;;;;;;;23.93;50.83;101201.13;5092976;27;20052;-73
2023/08/04 07:40:12;;;;;;;3.55;1.42;;;;;;;23.95;50.95;101201.75;5060161;28;20277;-74
2023/08/04 07:42:37;;;;;;;1.30;1.20;;;;;;;23.98;50.84;101206.66;5091549;27;20482;-73
2023/08/04 07:45:03;;;;;;;1.27;1.17;;;;;;;23.98;50.95;101204.84;5053788;28;20108;-73
2023/08/04 07:47:29;;;;;;;1.25;1.13;;;;;;;24.02;50.80;101211.38;5058390;28;20642;-73
2023/08/04 07:49:54;;;;;;;2.22;1.33;;;;;;;24.00;50.96;101217.94;5064289;28;20044;-73
2023/08/04 07:52:20;;;;;;;1.77;1.23;;;;;;;24.02;50.81;101221.22;5056224;28;20101;-73
2023/08/04 07:54:45;;;;;;;1.20;1.10;;;;;;;24.03;50.84;101218.34;5047685;28;20061;-74
2023/08/04 07:57:11;;;;;;;1.63;1.40;;;;;;;24.03;50.79;101218.34;5050680;28;20056;-73
2023/08/04 07:59:36;;;;;;;1.42;1.08;;;;;;;23.95;50.77;101209.72;5054693;28;20040;-73
2023/08/04 08:02:02;;;;;;;2.05;1.30;;;;;;;24.02;50.79;101218.56;5048172;28;20398;-73
2023/08/04 08:04:27;;;;;;;2.70;1.63;;;;;;;24.04;50.70;101208.53;5049218;28;20098;-73
2023/08/04 08:06:53;;;;;;;2.35;1.40;;;;;;;24.06;50.59;101214.50;5051034;28;20060;-72
2023/08/04 08:09:18;;;;;;;4.63;1.63;;;;;;;24.03;50.37;101212.22;5049566;28;20036;-72
2023/08/04 08:11:44;;;;;;;1.75;1.42;;;;;;;23.98;50.73;101212.81;5055109;28;20626;-71
2023/08/04 08:14:09;;;;;;;3.88;1.70;;;;;;;24.04;50.56;101217.34;5056795;28;20041;-72
2023/08/04 08:16:35;;;;;;;2.88;1.35;;;;;;;24.00;50.66;101220.59;5053811;28;20519;-73
2023/08/04 08:19:01;;;;;;;2.90;1.35;;;;;;;24.03;50.52;101230.84;5061234;28;20036;-73
2023/08/04 08:21:27;;;;;;;1.73;1.40;;;;;;;23.98;50.37;101223.44;5056504;28;20752;-71
2023/08/04 08:23:52;;;;;;;2.50;1.42;;;;;;;24.02;50.39;101230.00;5061276;28;20059;-71
2023/08/04 08:26:18;;;;;;;2.67;1.40;;;;;;;24.03;50.35;101222.84;5051821;28;20044;-72
2023/08/04 08:28:44;;;;;;;3.85;1.73;;;;;;;24.04;50.48;101233.28;5055663;28;20796;-72
2023/08/04 08:31:09;;;;;;;1.45;1.33;;;;;;;24.04;50.11;101238.63;5058953;28;20039;-71
2023/08/04 08:33:35;;;;;;;4.78;1.70;;;;;;;24.03;50.34;101241.47;5050423;28;20044;-72
2023/08/04 08:36:01;;;;;;;2.17;1.33;;;;;;;24.02;50.31;101238.00;5054197;28;20063;-71
2023/08/04 08:38:26;;;;;;;2.40;1.50;;;;;;;24.06;50.17;101246.44;5057910;28;20078;-71
2023/08/04 08:40:52;;;;;;;2.65;1.50;;;;;;;24.06;50.19;101254.41;5059071;28;20041;-71
2023/08/04 08:43:17;;;;;;;2.03;1.58;;;;;;;24.02;50.10;101255.78;5053253;28;20505;-72
2023/08/04 08:45:46;;;;;;;1.95;1.70;;;;;;;24.00;50.15;101256.00;5054538;28;20045;-71
2023/08/04 08:48:12;;;;;;;2.65;1.25;;;;;;;24.03;50.16;101260.09;5047920;28;20045;-73
2023/08/04 08:50:39;;;;;;;1.30;1.17;;;;;;;24.03;49.91;101263.56;5057449;28;20491;-71
2023/08/04 08:53:16;;;;;;;2.67;1.55;;;;;;;24.02;50.04;101259.28;5060290;28;20075;-72
2023/08/04 08:55:44;;;;;;;2.83;1.85;;;;;;;23.90;50.07;101236.94;5058052;28;20043;-72
2023/08/04 08:58:11;;;;;;;1.98;1.70;;;;;;;24.04;49.82;101245.78;5062405;28;20040;-72
2023/08/04 09:00:36;;;;;;;3.30;1.60;;;;;;;24.08;49.95;101255.84;5058349;28;20056;-71
2023/08/04 09:03:05;;;;;;;2.40;1.70;;;;;;;24.07;49.90;101259.53;5083458;27;20072;-71
2023/08/04 09:05:32;;;;;;;4.53;2.00;;;;;;;24.10;49.89;101261.78;5053710;28;20042;-71
2023/08/04 09:07:57;;;;;;;1.52;1.42;;;;;;;24.03;49.94;101244.94;5050597;28;20045;-71
2023/08/04 09:10:23;;;;;;;2.13;1.70;;;;;;;24.19;49.68;101264.28;5058078;28;20123;-72
2023/08/04 09:12:54;;;;;;;3.28;1.30;;;;;;;24.14;49.92;101261.38;5055877;28;20478;-71
2023/08/04 09:15:32;;;;;;;2.83;1.80;;;;;;;24.06;49.69;101273.03;5058430;28;20474;-71
2023/08/04 09:17:57;;;;;;;3.83;1.67;;;;;;;24.16;49.68;101288.63;5051011;28;20119;-70
2023/08/04 09:20:28;;;;;;;2.13;1.20;;;;;;;24.10;49.82;101288.41;5054642;28;20036;-72
2023/08/04 09:22:54;;;;;;;1.77;1.30;;;;;;;24.01;49.68;101265.63;5061983;28;20399;-72
2023/08/04 09:25:20;;;;;;;3.50;1.35;;;;;;;23.99;49.79;101264.19;5055896;28;20034;-72
2023/08/04 09:27:49;;;;;;;3.05;1.45;;;;;;;24.14;49.70;101286.16;5058000;28;20039;-71
2023/08/04 09:30:15;;;;;;;;;;;;;;;24.14;49.92;101283.50;5061704;28;20052;-72
2023/08/04 09:32:46;;;;;;;2.00;1.40;;;;;;;24.00;50.07;101266.63;5057005;28;19920;-71
2023/08/04 09:35:12;;;;;;;4.82;1.40;;;;;;;24.15;50.00;101289.63;5056850;28;20036;-72
2023/08/04 09:37:39;;;;;;;1.38;1.13;;;;;;;24.14;49.96;101288.00;5054752;28;20570;-72
2023/08/04 09:40:13;;;;;;;1.58;1.30;;;;;;;24.09;50.02;101276.13;5051455;28;20052;-71
2023/08/04 09:42:40;;;;;;;1.75;1.38;;;;;;;24.13;49.99;101289.84;5056028;28;20106;-72
2023/08/04 09:45:06;;;;;;;2.22;1.45;;;;;;;24.15;49.96;101290.47;5050652;28;20841;-71
2023/08/04 09:47:31;;;;;;;1.77;1.20;;;;;;;24.20;50.03;101282.69;5088638;28;20040;-72
2023/08/04 09:49:57;;;;;;;1.20;1.10;;;;;;;24.18;49.91;101281.25;5063019;28;20584;-72
2023/08/04 09:52:24;;;;;;;2.05;1.40;;;;;;;24.17;50.06;101291.06;5042453;28;20040;-72
2023/08/04 09:54:52;;;;;;;2.35;1.27;;;;;;;24.15;50.34;101287.78;5051453;28;20044;-74
2023/08/04 09:57:18;;;;;;;2.75;1.48;;;;;;;24.18;50.08;101283.91;5053340;28;20115;-74
2023/08/04 09:59:45;;;;;;;1.42;0.90;;;;;;;24.20;49.90;101289.84;5056797;28;20125;-74
2023/08/04 10:02:12;;;;;;;1.98;1.50;;;;;;;24.23;49.75;101289.47;5050074;28;20055;-72
2023/08/04 10:04:39;;;;;;;1.50;1.20;;;;;;;24.08;50.03;101274.47;5050588;28;20045;-72
2023/08/04 10:07:07;;;;;;;1.77;1.13;;;;;;;24.09;49.72;101276.13;5049404;28;20041;-72
2023/08/04 10:09:34;;;;;;;1.30;1.08;;;;;;;24.28;49.81;101303.00;5054715;28;20047;-72
2023/08/04 10:12:00;;;;;;;1.85;1.40;;;;;;;24.28;49.79;101300.34;5049343;28;20044;-72
2023/08/04 10:14:26;;;;;;;3.08;1.35;;;;;;;24.28;49.61;101293.19;5052193;28;20486;-71
2023/08/04 10:16:53;;;;;;;1.48;1.30;;;;;;;24.23;49.70;101292.94;5050021;28;20037;-71
2023/08/04 10:19:19;;;;;;;2.25;1.50;;;;;;;24.22;49.62;101287.81;5045717;28;20079;-73
2023/08/04 10:21:44;;;;;;;1.30;1.17;;;;;;;24.26;49.97;101297.88;5064454;28;20044;-72
2023/08/04 10:24:12;;;;;;;1.50;1.40;;;;;;;24.29;49.70;101304.69;5050618;28;20049;-73
2023/08/04 10:26:46;;;;;;;1.73;1.42;;;;;;;24.30;49.85;101301.81;5054013;28;20040;-71
2023/08/04 10:29:12;;;;;;;1.35;1.10;;;;;;;24.28;49.67;101301.16;5050345;28;20041;-71
2023/08/04 10:31:43;;;;;;;2.75;1.20;;;;;;;24.32;49.50;101293.63;5056284;28;20095;-72
2023/08/04 10:34:27;;;;;;;1.92;1.42;;;;;;;24.33;49.53;101297.94;5050457;28;20044;-72
2023/08/04 10:37:11;;;;;;;2.65;1.48;;;;;;;24.29;49.76;101294.88;5056106;28;20101;-72
2023/08/04 10:39:43;;;;;;;1.48;1.00;;;;;;;24.23;49.80;101284.13;5056678;28;20487;-72
2023/08/04 10:42:09;;;;;;;1.45;1.10;;;;;;;24.33;49.73;101298.75;5046961;28;20044;-71
2023/08/04 10:44:53;;;;;;;1.58;1.30;;;;;;;24.31;49.82;101298.16;5052660;28;20041;-71
2023/08/04 10:47:47;;;;;;;1.80;1.30;;;;;;;24.32;49.88;101298.97;5055895;28;20362;-71
2023/08/04 10:50:14;;;;;;;1.42;1.10;;;;;;;24.23;49.87;101287.63;5055980;28;20059;-71
2023/08/04 10:52:40;;;;;;;2.13;1.20;;;;;;;24.29;49.67;101318.81;5050062;28;20083;-69
2023/08/04 10:55:09;;;;;;;1.08;1.08;;;;;;;24.32;49.67;101313.09;5053642;28;20090;-70
2023/08/04 10:57:36;;;;;;;1.30;1.20;;;;;;;24.35;49.60;101317.19;5048195;28;20033;-70
2023/08/04 11:00:05;;;;;;;1.63;1.08;;;;;;;24.32;49.78;101318.41;5050111;28;20032;-69
2023/08/04 11:02:31;;;;;;;1.52;1.20;;;;;;;24.36;49.79;101316.16;5054674;28;20033;-70
2023/08/04 11:04:57;;;;;;;1.70;1.17;;;;;;;24.30;49.45;101309.00;5085674;27;20075;-70
2023/08/04 11:07:24;;;;;;;1.65;1.33;;;;;;;24.35;49.55;101311.88;5047889;28;20127;-70
2023/08/04 11:09:53;;;;;;;1.02;1.02;;;;;;;24.32;49.71;101314.94;5047766;28;20098;-70
2023/08/04 11:12:19;;;;;;;2.00;1.30;;;;;;;24.36;49.65;101314.34;5046480;28;20089;-70
2023/08/04 11:14:45;;;;;;;1.10;1.10;;;;;;;24.27;49.59;101290.72;5050509;28;20028;-71
2023/08/04 11:17:15;;;;;;;0.93;0.93;;;;;;;24.39;49.72;101307.78;5046868;28;20037;-72
2023/08/04 11:19:45;;;;;;;1.95;1.30;;;;;;;24.36;49.84;101314.34;5055402;28;20032;-72
2023/08/04 11:22:15;;;;;;;1.10;1.00;;;;;;;24.34;49.47;101324.34;5052156;28;20054;-71